sensor_id;sensor_type;location;lat;lon;timestamp;P1;durP1;ratioP1;P2;durP2;ratioP2
27566;SDS011;15006;48.584;9.186;2023-07-20T00:02:00;1.77;;;1.67;;
27566;SDS011;15006;48.584;9.186;2023-07-20T00:04:28;1.77;;;1.67;;
27566;SDS011;15006;48.584;9.186;2023-07-20T00:06:54;2.38;;;1.55;;
27566;SDS011;15006;48.584;9.186;2023-07-20T00:09:20;1.55;;;1.45;;
27566;SDS011;15006;48.584;9.186;2023-07-20T00:11:50;1.60;;;1.50;;
27566;SDS011;15006;48.584;9.186;2023-07-20T00:14:17;3.80;;;1.45;;
27566;SDS011;15006;48.584;9.186;2023-07-20T00:16:44;1.80;;;1.70;;
27566;SDS011;15006;48.584;9.186;2023-07-20T00:19:21;2.85;;;1.70;;
27566;SDS011;15006;48.584;9.186;2023-07-20T00:21:52;2.67;;;1.90;;
27566;SDS011;15006;48.584;9.186;2023-07-20T00:24:20;3.25;;;1.70;;
27566;SDS011;15006;48.584;9.186;2023-07-20T00:26:46;2.05;;;1.63;;
27566;SDS011;15006;48.584;9.186;2023-07-20T00:29:12;2.47;;;1.90;;
27566;SDS011;15006;48.584;9.186;2023-07-20T00:31:38;2.20;;;1.67;;
27566;SDS011;15006;48.584;9.186;2023-07-20T00:34:04;1.60;;;1.48;;
27566;SDS011;15006;48.584;9.186;2023-07-20T00:36:31;1.80;;;1.50;;
27566;SDS011;15006;48.584;9.186;2023-07-20T00:38:57;1.67;;;1.58;;
27566;SDS011;15006;48.584;9.186;2023-07-20T00:41:23;1.92;;;1.83;;
27566;SDS011;15006;48.584;9.186;2023-07-20T00:43:50;3.67;;;1.70;;
27566;SDS011;15006;48.584;9.186;2023-07-20T00:46:16;3.28;;;1.50;;
27566;SDS011;15006;48.584;9.186;2023-07-20T00:48:42;2.60;;;1.90;;
27566;SDS011;15006;48.584;9.186;2023-07-20T00:51:08;1.80;;;1.35;;
27566;SDS011;15006;48.584;9.186;2023-07-20T00:53:35;1.77;;;1.67;;
27566;SDS011;15006;48.584;9.186;2023-07-20T00:56:01;1.65;;;1.55;;
27566;SDS011;15006;48.584;9.186;2023-07-20T00:58:28;4.38;;;1.70;;
27566;SDS011;15006;48.584;9.186;2023-07-20T01:00:54;2.30;;;2.10;;
27566;SDS011;15006;48.584;9.186;2023-07-20T01:03:20;3.47;;;1.80;;
27566;SDS011;15006;48.584;9.186;2023-07-20T01:05:48;3.58;;;2.00;;
27566;SDS011;15006;48.584;9.186;2023-07-20T01:11:06;1.80;;;1.70;;
27566;SDS011;15006;48.584;9.186;2023-07-20T01:14:26;2.28;;;1.73;;
27566;SDS011;15006;48.584;9.186;2023-07-20T01:16:52;1.95;;;1.73;;
27566;SDS011;15006;48.584;9.186;2023-07-20T01:19:18;2.58;;;1.83;;
27566;SDS011;15006;48.584;9.186;2023-07-20T01:21:55;2.53;;;1.95;;
27566;SDS011;15006;48.584;9.186;2023-07-20T01:24:38;1.63;;;1.52;;
27566;SDS011;15006;48.584;9.186;2023-07-20T01:30:30;1.75;;;1.65;;
27566;SDS011;15006;48.584;9.186;2023-07-20T01:33:25;1.90;;;1.80;;
27566;SDS011;15006;48.584;9.186;2023-07-20T01:35:54;1.92;;;1.77;;
27566;SDS011;15006;48.584;9.186;2023-07-20T01:38:23;3.13;;;2.20;;
27566;SDS011;15006;48.584;9.186;2023-07-20T01:40:49;1.95;;;1.85;;
27566;SDS011;15006;48.584;9.186;2023-07-20T01:43:17;3.80;;;2.03;;
27566;SDS011;15006;48.584;9.186;2023-07-20T01:45:43;2.65;;;1.98;;
27566;SDS011;15006;48.584;9.186;2023-07-20T01:48:09;2.05;;;1.85;;
27566;SDS011;15006;48.584;9.186;2023-07-20T01:50:36;1.88;;;1.52;;
27566;SDS011;15006;48.584;9.186;2023-07-20T01:53:01;2.05;;;1.75;;
27566;SDS011;15006;48.584;9.186;2023-07-20T01:55:27;3.53;;;1.80;;
27566;SDS011;15006;48.584;9.186;2023-07-20T01:57:54;1.83;;;1.73;;
27566;SDS011;15006;48.584;9.186;2023-07-20T02:00:20;3.50;;;1.95;;
27566;SDS011;15006;48.584;9.186;2023-07-20T02:02:49;1.73;;;1.63;;
27566;SDS011;15006;48.584;9.186;2023-07-20T02:05:15;2.67;;;2.33;;
27566;SDS011;15006;48.584;9.186;2023-07-20T02:07:42;5.07;;;2.33;;
27566;SDS011;15006;48.584;9.186;2023-07-20T02:10:08;2.75;;;1.73;;
27566;SDS011;15006;48.584;9.186;2023-07-20T02:12:35;2.13;;;1.90;;
27566;SDS011;15006;48.584;9.186;2023-07-20T02:15:02;1.80;;;1.70;;
27566;SDS011;15006;48.584;9.186;2023-07-20T02:17:28;2.17;;;1.63;;
27566;SDS011;15006;48.584;9.186;2023-07-20T02:19:55;2.30;;;2.10;;
27566;SDS011;15006;48.584;9.186;2023-07-20T02:22:23;1.90;;;1.80;;
27566;SDS011;15006;48.584;9.186;2023-07-20T02:24:49;1.70;;;1.60;;
27566;SDS011;15006;48.584;9.186;2023-07-20T02:27:15;2.65;;;1.88;;
27566;SDS011;15006;48.584;9.186;2023-07-20T02:29:41;1.98;;;1.88;;
27566;SDS011;15006;48.584;9.186;2023-07-20T02:32:08;4.35;;;1.88;;
27566;SDS011;15006;48.584;9.186;2023-07-20T02:34:35;1.83;;;1.73;;
27566;SDS011;15006;48.584;9.186;2023-07-20T02:37:01;1.90;;;1.80;;
27566;SDS011;15006;48.584;9.186;2023-07-20T02:39:27;1.60;;;1.50;;
27566;SDS011;15006;48.584;9.186;2023-07-20T02:41:53;1.83;;;1.63;;
27566;SDS011;15006;48.584;9.186;2023-07-20T02:44:20;2.15;;;1.95;;
27566;SDS011;15006;48.584;9.186;2023-07-20T02:46:46;1.67;;;1.45;;
27566;SDS011;15006;48.584;9.186;2023-07-20T02:49:12;1.77;;;1.67;;
27566;SDS011;15006;48.584;9.186;2023-07-20T02:51:38;1.92;;;1.80;;
27566;SDS011;15006;48.584;9.186;2023-07-20T02:54:04;1.88;;;1.58;;
27566;SDS011;15006;48.584;9.186;2023-07-20T02:56:30;1.85;;;1.75;;
27566;SDS011;15006;48.584;9.186;2023-07-20T02:58:56;1.98;;;1.80;;
27566;SDS011;15006;48.584;9.186;2023-07-20T03:01:22;1.90;;;1.80;;
27566;SDS011;15006;48.584;9.186;2023-07-20T03:03:48;3.53;;;2.13;;
27566;SDS011;15006;48.584;9.186;2023-07-20T03:06:15;2.20;;;1.92;;
27566;SDS011;15006;48.584;9.186;2023-07-20T03:08:44;2.08;;;1.90;;
27566;SDS011;15006;48.584;9.186;2023-07-20T03:11:13;1.73;;;1.63;;
27566;SDS011;15006;48.584;9.186;2023-07-20T03:13:43;1.98;;;1.85;;
27566;SDS011;15006;48.584;9.186;2023-07-20T03:16:10;2.55;;;2.03;;
27566;SDS011;15006;48.584;9.186;2023-07-20T03:18:43;1.85;;;1.75;;
27566;SDS011;15006;48.584;9.186;2023-07-20T03:21:09;2.20;;;1.85;;
27566;SDS011;15006;48.584;9.186;2023-07-20T03:23:39;3.03;;;1.80;;
27566;SDS011;15006;48.584;9.186;2023-07-20T03:26:06;2.00;;;1.90;;
27566;SDS011;15006;48.584;9.186;2023-07-20T03:28:37;2.65;;;2.08;;
27566;SDS011;15006;48.584;9.186;2023-07-20T03:31:04;1.80;;;1.70;;
27566;SDS011;15006;48.584;9.186;2023-07-20T03:33:30;2.00;;;1.58;;
27566;SDS011;15006;48.584;9.186;2023-07-20T03:35:57;1.85;;;1.75;;
27566;SDS011;15006;48.584;9.186;2023-07-20T03:38:24;2.03;;;1.92;;
27566;SDS011;15006;48.584;9.186;2023-07-20T03:40:52;1.98;;;1.88;;
27566;SDS011;15006;48.584;9.186;2023-07-20T03:43:23;2.15;;;2.05;;
27566;SDS011;15006;48.584;9.186;2023-07-20T03:45:51;3.00;;;2.00;;
27566;SDS011;15006;48.584;9.186;2023-07-20T03:48:18;2.00;;;1.80;;
27566;SDS011;15006;48.584;9.186;2023-07-20T03:50:50;1.90;;;1.70;;
27566;SDS011;15006;48.584;9.186;2023-07-20T03:53:18;2.35;;;2.20;;
27566;SDS011;15006;48.584;9.186;2023-07-20T03:55:45;1.77;;;1.67;;
27566;SDS011;15006;48.584;9.186;2023-07-20T03:58:16;1.98;;;1.88;;
27566;SDS011;15006;48.584;9.186;2023-07-20T04:00:47;2.00;;;1.90;;
27566;SDS011;15006;48.584;9.186;2023-07-20T04:03:19;1.98;;;1.88;;
27566;SDS011;15006;48.584;9.186;2023-07-20T04:05:45;1.90;;;1.77;;
27566;SDS011;15006;48.584;9.186;2023-07-20T04:08:11;2.10;;;2.00;;
27566;SDS011;15006;48.584;9.186;2023-07-20T04:10:37;1.90;;;1.80;;
27566;SDS011;15006;48.584;9.186;2023-07-20T04:13:04;2.15;;;2.00;;
27566;SDS011;15006;48.584;9.186;2023-07-20T04:15:30;1.88;;;1.77;;
27566;SDS011;15006;48.584;9.186;2023-07-20T04:17:56;7.50;;;2.25;;
27566;SDS011;15006;48.584;9.186;2023-07-20T04:20:23;1.88;;;1.70;;
27566;SDS011;15006;48.584;9.186;2023-07-20T04:22:49;2.13;;;2.03;;
27566;SDS011;15006;48.584;9.186;2023-07-20T04:25:16;2.08;;;1.98;;
27566;SDS011;15006;48.584;9.186;2023-07-20T04:27:44;2.28;;;2.05;;
27566;SDS011;15006;48.584;9.186;2023-07-20T04:30:10;2.65;;;2.45;;
27566;SDS011;15006;48.584;9.186;2023-07-20T04:32:37;2.60;;;2.33;;
27566;SDS011;15006;48.584;9.186;2023-07-20T04:35:09;1.88;;;1.77;;
27566;SDS011;15006;48.584;9.186;2023-07-20T04:37:35;4.82;;;1.98;;
27566;SDS011;15006;48.584;9.186;2023-07-20T04:40:01;4.05;;;2.05;;
27566;SDS011;15006;48.584;9.186;2023-07-20T04:42:29;3.15;;;1.60;;
27566;SDS011;15006;48.584;9.186;2023-07-20T04:44:55;1.98;;;1.88;;
27566;SDS011;15006;48.584;9.186;2023-07-20T04:47:21;2.03;;;1.88;;
27566;SDS011;15006;48.584;9.186;2023-07-20T04:49:47;2.53;;;2.35;;
27566;SDS011;15006;48.584;9.186;2023-07-20T04:52:12;4.45;;;2.10;;
27566;SDS011;15006;48.584;9.186;2023-07-20T04:54:38;2.42;;;1.85;;
27566;SDS011;15006;48.584;9.186;2023-07-20T04:57:11;4.18;;;2.15;;
27566;SDS011;15006;48.584;9.186;2023-07-20T04:59:38;4.00;;;1.92;;
27566;SDS011;15006;48.584;9.186;2023-07-20T05:02:04;2.25;;;1.80;;
27566;SDS011;15006;48.584;9.186;2023-07-20T05:04:30;2.28;;;2.08;;
27566;SDS011;15006;48.584;9.186;2023-07-20T05:06:56;1.55;;;1.45;;
27566;SDS011;15006;48.584;9.186;2023-07-20T05:09:22;1.80;;;1.70;;
27566;SDS011;15006;48.584;9.186;2023-07-20T05:11:48;2.10;;;1.80;;
27566;SDS011;15006;48.584;9.186;2023-07-20T05:14:14;1.65;;;1.50;;
27566;SDS011;15006;48.584;9.186;2023-07-20T05:16:40;2.65;;;1.80;;
27566;SDS011;15006;48.584;9.186;2023-07-20T05:19:06;1.70;;;1.60;;
27566;SDS011;15006;48.584;9.186;2023-07-20T05:21:32;1.80;;;1.60;;
27566;SDS011;15006;48.584;9.186;2023-07-20T05:23:58;2.67;;;1.70;;
27566;SDS011;15006;48.584;9.186;2023-07-20T05:26:24;1.52;;;1.40;;
27566;SDS011;15006;48.584;9.186;2023-07-20T05:28:51;2.58;;;1.73;;
27566;SDS011;15006;48.584;9.186;2023-07-20T05:31:16;2.00;;;1.80;;
27566;SDS011;15006;48.584;9.186;2023-07-20T05:33:43;1.52;;;1.42;;
27566;SDS011;15006;48.584;9.186;2023-07-20T05:36:09;3.08;;;1.90;;
27566;SDS011;15006;48.584;9.186;2023-07-20T05:38:35;2.08;;;1.58;;
27566;SDS011;15006;48.584;9.186;2023-07-20T05:41:01;1.65;;;1.48;;
27566;SDS011;15006;48.584;9.186;2023-07-20T05:43:27;1.83;;;1.73;;
27566;SDS011;15006;48.584;9.186;2023-07-20T05:45:53;2.00;;;1.60;;
27566;SDS011;15006;48.584;9.186;2023-07-20T05:48:19;1.52;;;1.42;;
27566;SDS011;15006;48.584;9.186;2023-07-20T05:50:45;1.73;;;1.63;;
27566;SDS011;15006;48.584;9.186;2023-07-20T05:53:11;3.80;;;1.90;;
27566;SDS011;15006;48.584;9.186;2023-07-20T05:55:37;2.80;;;1.80;;
27566;SDS011;15006;48.584;9.186;2023-07-20T05:58:04;2.15;;;1.58;;
27566;SDS011;15006;48.584;9.186;2023-07-20T06:00:30;1.73;;;1.63;;
27566;SDS011;15006;48.584;9.186;2023-07-20T06:02:56;5.65;;;1.85;;
27566;SDS011;15006;48.584;9.186;2023-07-20T06:05:22;2.00;;;1.80;;
27566;SDS011;15006;48.584;9.186;2023-07-20T06:07:49;1.85;;;1.73;;
27566;SDS011;15006;48.584;9.186;2023-07-20T06:10:15;2.15;;;1.70;;
27566;SDS011;15006;48.584;9.186;2023-07-20T06:12:41;2.92;;;2.08;;
27566;SDS011;15006;48.584;9.186;2023-07-20T06:15:23;1.85;;;1.70;;
27566;SDS011;15006;48.584;9.186;2023-07-20T06:18:00;3.25;;;1.90;;
27566;SDS011;15006;48.584;9.186;2023-07-20T06:20:27;5.13;;;1.83;;
27566;SDS011;15006;48.584;9.186;2023-07-20T06:22:53;1.80;;;1.50;;
27566;SDS011;15006;48.584;9.186;2023-07-20T06:25:19;1.70;;;1.60;;
27566;SDS011;15006;48.584;9.186;2023-07-20T06:27:46;1.55;;;1.45;;
27566;SDS011;15006;48.584;9.186;2023-07-20T06:30:13;3.78;;;1.85;;
27566;SDS011;15006;48.584;9.186;2023-07-20T06:32:39;3.15;;;1.65;;
27566;SDS011;15006;48.584;9.186;2023-07-20T06:35:05;1.88;;;1.52;;
27566;SDS011;15006;48.584;9.186;2023-07-20T06:37:32;1.77;;;1.50;;
27566;SDS011;15006;48.584;9.186;2023-07-20T06:39:58;1.73;;;1.60;;
27566;SDS011;15006;48.584;9.186;2023-07-20T06:42:24;3.17;;;1.88;;
27566;SDS011;15006;48.584;9.186;2023-07-20T06:44:50;3.55;;;1.60;;
27566;SDS011;15006;48.584;9.186;2023-07-20T06:47:16;1.52;;;1.42;;
27566;SDS011;15006;48.584;9.186;2023-07-20T06:49:42;2.03;;;1.70;;
27566;SDS011;15006;48.584;9.186;2023-07-20T06:52:08;1.85;;;1.40;;
27566;SDS011;15006;48.584;9.186;2023-07-20T06:54:34;9.00;;;1.90;;
27566;SDS011;15006;48.584;9.186;2023-07-20T06:57:00;1.95;;;1.85;;
27566;SDS011;15006;48.584;9.186;2023-07-20T06:59:26;2.30;;;1.52;;
27566;SDS011;15006;48.584;9.186;2023-07-20T07:01:52;2.53;;;1.55;;
27566;SDS011;15006;48.584;9.186;2023-07-20T07:04:18;1.85;;;1.63;;
27566;SDS011;15006;48.584;9.186;2023-07-20T07:06:44;1.40;;;1.30;;
27566;SDS011;15006;48.584;9.186;2023-07-20T07:09:10;3.08;;;1.65;;
27566;SDS011;15006;48.584;9.186;2023-07-20T07:11:36;1.77;;;1.58;;
27566;SDS011;15006;48.584;9.186;2023-07-20T07:14:02;3.92;;;1.50;;
27566;SDS011;15006;48.584;9.186;2023-07-20T07:16:29;1.50;;;1.40;;
27566;SDS011;15006;48.584;9.186;2023-07-20T07:18:55;2.17;;;1.52;;
27566;SDS011;15006;48.584;9.186;2023-07-20T07:21:21;3.22;;;1.40;;
27566;SDS011;15006;48.584;9.186;2023-07-20T07:23:47;2.92;;;1.63;;
27566;SDS011;15006;48.584;9.186;2023-07-20T07:26:13;3.10;;;1.65;;
27566;SDS011;15006;48.584;9.186;2023-07-20T07:28:39;2.85;;;1.60;;
27566;SDS011;15006;48.584;9.186;2023-07-20T07:31:05;2.13;;;1.48;;
27566;SDS011;15006;48.584;9.186;2023-07-20T07:33:31;9.88;;;2.40;;
27566;SDS011;15006;48.584;9.186;2023-07-20T07:35:58;2.95;;;1.60;;
27566;SDS011;15006;48.584;9.186;2023-07-20T07:38:24;1.48;;;1.38;;
27566;SDS011;15006;48.584;9.186;2023-07-20T07:40:50;1.50;;;1.40;;
27566;SDS011;15006;48.584;9.186;2023-07-20T07:43:16;3.13;;;1.48;;
27566;SDS011;15006;48.584;9.186;2023-07-20T07:45:41;3.25;;;1.70;;
27566;SDS011;15006;48.584;9.186;2023-07-20T07:48:07;2.25;;;1.42;;
27566;SDS011;15006;48.584;9.186;2023-07-20T07:50:36;2.28;;;1.67;;
27566;SDS011;15006;48.584;9.186;2023-07-20T07:53:03;1.63;;;1.50;;
27566;SDS011;15006;48.584;9.186;2023-07-20T07:55:29;1.52;;;1.42;;
27566;SDS011;15006;48.584;9.186;2023-07-20T07:57:55;8.27;;;1.73;;
27566;SDS011;15006;48.584;9.186;2023-07-20T08:00:21;2.08;;;1.90;;
27566;SDS011;15006;48.584;9.186;2023-07-20T08:02:49;5.53;;;1.95;;
27566;SDS011;15006;48.584;9.186;2023-07-20T08:05:16;1.80;;;1.38;;
27566;SDS011;15006;48.584;9.186;2023-07-20T08:07:42;1.98;;;1.80;;
27566;SDS011;15006;48.584;9.186;2023-07-20T08:10:08;3.60;;;1.58;;
27566;SDS011;15006;48.584;9.186;2023-07-20T08:12:35;2.70;;;1.67;;
27566;SDS011;15006;48.584;9.186;2023-07-20T08:15:01;12.25;;;2.30;;
27566;SDS011;15006;48.584;9.186;2023-07-20T08:17:28;2.90;;;1.60;;
27566;SDS011;15006;48.584;9.186;2023-07-20T08:19:54;1.45;;;1.35;;
27566;SDS011;15006;48.584;9.186;2023-07-20T08:22:20;2.00;;;1.80;;
27566;SDS011;15006;48.584;9.186;2023-07-20T08:24:46;1.58;;;1.48;;
27566;SDS011;15006;48.584;9.186;2023-07-20T08:27:12;2.30;;;2.10;;
27566;SDS011;15006;48.584;9.186;2023-07-20T08:29:38;2.08;;;1.90;;
27566;SDS011;15006;48.584;9.186;2023-07-20T08:32:05;3.25;;;1.70;;
27566;SDS011;15006;48.584;9.186;2023-07-20T08:34:32;3.72;;;1.70;;
27566;SDS011;15006;48.584;9.186;2023-07-20T08:36:58;2.58;;;1.40;;
27566;SDS011;15006;48.584;9.186;2023-07-20T08:39:24;1.70;;;1.60;;
27566;SDS011;15006;48.584;9.186;2023-07-20T08:41:50;1.60;;;1.50;;
27566;SDS011;15006;48.584;9.186;2023-07-20T08:44:19;2.63;;;1.50;;
27566;SDS011;15006;48.584;9.186;2023-07-20T08:46:45;1.50;;;1.40;;
27566;SDS011;15006;48.584;9.186;2023-07-20T08:49:14;2.35;;;1.35;;
27566;SDS011;15006;48.584;9.186;2023-07-20T08:51:42;2.97;;;1.83;;
27566;SDS011;15006;48.584;9.186;2023-07-20T08:54:11;1.85;;;1.60;;
27566;SDS011;15006;48.584;9.186;2023-07-20T08:56:38;3.55;;;1.38;;
27566;SDS011;15006;48.584;9.186;2023-07-20T08:59:07;1.60;;;1.50;;
27566;SDS011;15006;48.584;9.186;2023-07-20T09:01:34;2.05;;;1.50;;
27566;SDS011;15006;48.584;9.186;2023-07-20T09:04:01;1.40;;;1.30;;
27566;SDS011;15006;48.584;9.186;2023-07-20T09:06:28;1.90;;;1.63;;
27566;SDS011;15006;48.584;9.186;2023-07-20T09:08:55;1.88;;;1.50;;
27566;SDS011;15006;48.584;9.186;2023-07-20T09:11:21;1.27;;;1.17;;
27566;SDS011;15006;48.584;9.186;2023-07-20T09:13:47;1.40;;;1.30;;
27566;SDS011;15006;48.584;9.186;2023-07-20T09:16:13;2.83;;;1.58;;
27566;SDS011;15006;48.584;9.186;2023-07-20T09:18:40;2.72;;;1.27;;
27566;SDS011;15006;48.584;9.186;2023-07-20T09:21:06;1.60;;;1.50;;
27566;SDS011;15006;48.584;9.186;2023-07-20T09:23:33;3.13;;;1.70;;
27566;SDS011;15006;48.584;9.186;2023-07-20T09:26:13;1.40;;;1.30;;
27566;SDS011;15006;48.584;9.186;2023-07-20T09:28:41;1.95;;;1.58;;
27566;SDS011;15006;48.584;9.186;2023-07-20T09:31:42;1.30;;;1.20;;
27566;SDS011;15006;48.584;9.186;2023-07-20T09:34:01;7.03;;;2.45;;
27566;SDS011;15006;48.584;9.186;2023-07-20T09:36:29;4.22;;;1.90;;
27566;SDS011;15006;48.584;9.186;2023-07-20T09:38:55;1.98;;;1.77;;
27566;SDS011;15006;48.584;9.186;2023-07-20T09:41:21;1.65;;;1.55;;
27566;SDS011;15006;48.584;9.186;2023-07-20T09:43:47;1.55;;;1.40;;
27566;SDS011;15006;48.584;9.186;2023-07-20T09:46:14;14.75;;;1.58;;
27566;SDS011;15006;48.584;9.186;2023-07-20T09:48:48;1.50;;;1.40;;
27566;SDS011;15006;48.584;9.186;2023-07-20T09:51:21;1.13;;;1.13;;
27566;SDS011;15006;48.584;9.186;2023-07-20T09:53:49;2.87;;;1.20;;
27566;SDS011;15006;48.584;9.186;2023-07-20T09:56:21;2.55;;;1.27;;
27566;SDS011;15006;48.584;9.186;2023-07-20T09:58:50;1.58;;;1.00;;
27566;SDS011;15006;48.584;9.186;2023-07-20T10:01:17;1.42;;;1.17;;
27566;SDS011;15006;48.584;9.186;2023-07-20T10:03:47;1.85;;;1.08;;
27566;SDS011;15006;48.584;9.186;2023-07-20T10:06:18;1.30;;;1.07;;
27566;SDS011;15006;48.584;9.186;2023-07-20T10:08:49;1.30;;;1.20;;
27566;SDS011;15006;48.584;9.186;2023-07-20T10:11:18;0.90;;;0.90;;
27566;SDS011;15006;48.584;9.186;2023-07-20T10:13:48;4.25;;;1.20;;
27566;SDS011;15006;48.584;9.186;2023-07-20T10:16:24;3.13;;;1.00;;
27566;SDS011;15006;48.584;9.186;2023-07-20T10:18:59;1.80;;;1.20;;
27566;SDS011;15006;48.584;9.186;2023-07-20T10:21:51;3.60;;;1.13;;
27566;SDS011;15006;48.584;9.186;2023-07-20T10:24:44;0.88;;;0.70;;
27566;SDS011;15006;48.584;9.186;2023-07-20T10:27:12;1.80;;;0.98;;
27566;SDS011;15006;48.584;9.186;2023-07-20T10:29:40;0.88;;;0.80;;
27566;SDS011;15006;48.584;9.186;2023-07-20T10:32:07;1.08;;;0.98;;
27566;SDS011;15006;48.584;9.186;2023-07-20T10:34:34;1.27;;;0.70;;
27566;SDS011;15006;48.584;9.186;2023-07-20T10:37:00;5.38;;;1.10;;
27566;SDS011;15006;48.584;9.186;2023-07-20T10:39:27;0.80;;;0.80;;
27566;SDS011;15006;48.584;9.186;2023-07-20T10:42:03;0.93;;;0.88;;
27566;SDS011;15006;48.584;9.186;2023-07-20T10:44:33;1.20;;;0.90;;
27566;SDS011;15006;48.584;9.186;2023-07-20T10:47:00;2.03;;;0.88;;
27566;SDS011;15006;48.584;9.186;2023-07-20T10:49:28;0.82;;;0.70;;
27566;SDS011;15006;48.584;9.186;2023-07-20T10:51:58;0.70;;;0.70;;
27566;SDS011;15006;48.584;9.186;2023-07-20T10:56:51;0.88;;;0.80;;
27566;SDS011;15006;48.584;9.186;2023-07-20T11:01:50;0.98;;;0.55;;
27566;SDS011;15006;48.584;9.186;2023-07-20T11:04:46;1.15;;;0.70;;
27566;SDS011;15006;48.584;9.186;2023-07-20T11:07:17;0.80;;;0.80;;
27566;SDS011;15006;48.584;9.186;2023-07-20T11:10:23;0.77;;;0.70;;
27566;SDS011;15006;48.584;9.186;2023-07-20T11:16:03;1.42;;;0.80;;
27566;SDS011;15006;48.584;9.186;2023-07-20T11:18:30;0.80;;;0.80;;
27566;SDS011;15006;48.584;9.186;2023-07-20T11:20:58;1.10;;;0.70;;
27566;SDS011;15006;48.584;9.186;2023-07-20T11:23:24;1.48;;;1.02;;
27566;SDS011;15006;48.584;9.186;2023-07-20T11:25:51;1.13;;;1.02;;
27566;SDS011;15006;48.584;9.186;2023-07-20T11:28:17;1.15;;;0.70;;
27566;SDS011;15006;48.584;9.186;2023-07-20T11:30:43;2.47;;;0.68;;
27566;SDS011;15006;48.584;9.186;2023-07-20T11:33:09;0.57;;;0.57;;
27566;SDS011;15006;48.584;9.186;2023-07-20T11:35:35;1.30;;;0.90;;
27566;SDS011;15006;48.584;9.186;2023-07-20T11:38:08;0.88;;;0.88;;
27566;SDS011;15006;48.584;9.186;2023-07-20T11:40:34;1.45;;;1.10;;
27566;SDS011;15006;48.584;9.186;2023-07-20T11:43:00;0.85;;;0.85;;
27566;SDS011;15006;48.584;9.186;2023-07-20T11:45:26;1.35;;;0.80;;
27566;SDS011;15006;48.584;9.186;2023-07-20T11:47:58;0.80;;;0.75;;
27566;SDS011;15006;48.584;9.186;2023-07-20T11:50:29;0.68;;;0.68;;
27566;SDS011;15006;48.584;9.186;2023-07-20T11:52:55;1.05;;;0.68;;
27566;SDS011;15006;48.584;9.186;2023-07-20T11:55:21;0.82;;;0.63;;
27566;SDS011;15006;48.584;9.186;2023-07-20T11:58:00;0.90;;;0.90;;
27566;SDS011;15006;48.584;9.186;2023-07-20T12:00:30;2.10;;;0.77;;
27566;SDS011;15006;48.584;9.186;2023-07-20T12:05:26;1.90;;;0.70;;
27566;SDS011;15006;48.584;9.186;2023-07-20T12:07:53;2.38;;;0.60;;
27566;SDS011;15006;48.584;9.186;2023-07-20T12:10:24;1.33;;;0.90;;
27566;SDS011;15006;48.584;9.186;2023-07-20T12:12:52;1.00;;;0.80;;
27566;SDS011;15006;48.584;9.186;2023-07-20T12:15:25;1.70;;;0.75;;
27566;SDS011;15006;48.584;9.186;2023-07-20T12:17:52;0.70;;;0.60;;
27566;SDS011;15006;48.584;9.186;2023-07-20T12:20:26;2.25;;;0.80;;
27566;SDS011;15006;48.584;9.186;2023-07-20T12:23:05;1.02;;;0.95;;
27566;SDS011;15006;48.584;9.186;2023-07-20T12:28:14;0.95;;;0.60;;
27566;SDS011;15006;48.584;9.186;2023-07-20T12:30:42;0.65;;;0.65;;
27566;SDS011;15006;48.584;9.186;2023-07-20T12:33:09;0.65;;;0.65;;
27566;SDS011;15006;48.584;9.186;2023-07-20T12:35:37;0.80;;;0.80;;
27566;SDS011;15006;48.584;9.186;2023-07-20T12:38:03;0.73;;;0.73;;
27566;SDS011;15006;48.584;9.186;2023-07-20T12:40:30;0.60;;;0.60;;
27566;SDS011;15006;48.584;9.186;2023-07-20T12:42:56;0.68;;;0.68;;
27566;SDS011;15006;48.584;9.186;2023-07-20T12:45:22;0.68;;;0.68;;
27566;SDS011;15006;48.584;9.186;2023-07-20T12:47:49;0.60;;;0.60;;
27566;SDS011;15006;48.584;9.186;2023-07-20T12:50:15;0.77;;;0.77;;
27566;SDS011;15006;48.584;9.186;2023-07-20T12:52:41;0.77;;;0.70;;
27566;SDS011;15006;48.584;9.186;2023-07-20T12:55:07;0.65;;;0.65;;
27566;SDS011;15006;48.584;9.186;2023-07-20T12:57:35;0.77;;;0.77;;
27566;SDS011;15006;48.584;9.186;2023-07-20T13:00:03;2.33;;;0.98;;
27566;SDS011;15006;48.584;9.186;2023-07-20T13:04:58;0.73;;;0.60;;
27566;SDS011;15006;48.584;9.186;2023-07-20T13:07:30;0.70;;;0.70;;
27566;SDS011;15006;48.584;9.186;2023-07-20T13:09:59;1.35;;;0.80;;
27566;SDS011;15006;48.584;9.186;2023-07-20T13:12:27;0.65;;;0.65;;
27566;SDS011;15006;48.584;9.186;2023-07-20T13:14:54;2.17;;;0.77;;
27566;SDS011;15006;48.584;9.186;2023-07-20T13:17:22;0.82;;;0.50;;
27566;SDS011;15006;48.584;9.186;2023-07-20T13:19:48;0.82;;;0.80;;
27566;SDS011;15006;48.584;9.186;2023-07-20T13:22:14;1.45;;;0.70;;
27566;SDS011;15006;48.584;9.186;2023-07-20T13:24:40;0.98;;;0.98;;
27566;SDS011;15006;48.584;9.186;2023-07-20T13:27:07;2.15;;;0.70;;
27566;SDS011;15006;48.584;9.186;2023-07-20T13:29:33;0.95;;;0.80;;
27566;SDS011;15006;48.584;9.186;2023-07-20T13:31:59;0.80;;;0.65;;
27566;SDS011;15006;48.584;9.186;2023-07-20T13:34:25;0.80;;;0.80;;
27566;SDS011;15006;48.584;9.186;2023-07-20T13:36:52;1.45;;;0.65;;
27566;SDS011;15006;48.584;9.186;2023-07-20T13:39:17;0.60;;;0.60;;
27566;SDS011;15006;48.584;9.186;2023-07-20T13:41:44;5.78;;;0.60;;
27566;SDS011;15006;48.584;9.186;2023-07-20T13:44:10;0.90;;;0.77;;
27566;SDS011;15006;48.584;9.186;2023-07-20T13:46:37;1.42;;;0.60;;
27566;SDS011;15006;48.584;9.186;2023-07-20T13:49:04;0.60;;;0.60;;
27566;SDS011;15006;48.584;9.186;2023-07-20T13:51:30;0.65;;;0.55;;
27566;SDS011;15006;48.584;9.186;2023-07-20T13:53:56;0.70;;;0.70;;
27566;SDS011;15006;48.584;9.186;2023-07-20T13:56:23;0.60;;;0.60;;
27566;SDS011;15006;48.584;9.186;2023-07-20T13:58:50;1.23;;;0.75;;
27566;SDS011;15006;48.584;9.186;2023-07-20T14:01:16;0.63;;;0.50;;
27566;SDS011;15006;48.584;9.186;2023-07-20T14:03:45;1.25;;;0.80;;
27566;SDS011;15006;48.584;9.186;2023-07-20T14:06:11;0.77;;;0.77;;
27566;SDS011;15006;48.584;9.186;2023-07-20T14:08:38;0.60;;;0.60;;
27566;SDS011;15006;48.584;9.186;2023-07-20T14:11:05;0.90;;;0.60;;
27566;SDS011;15006;48.584;9.186;2023-07-20T14:13:31;0.77;;;0.60;;
27566;SDS011;15006;48.584;9.186;2023-07-20T14:15:57;0.75;;;0.63;;
27566;SDS011;15006;48.584;9.186;2023-07-20T14:18:23;0.52;;;0.52;;
27566;SDS011;15006;48.584;9.186;2023-07-20T14:20:50;0.85;;;0.70;;
27566;SDS011;15006;48.584;9.186;2023-07-20T14:23:16;1.20;;;0.57;;
27566;SDS011;15006;48.584;9.186;2023-07-20T14:25:42;1.65;;;0.75;;
27566;SDS011;15006;48.584;9.186;2023-07-20T14:28:08;1.23;;;0.70;;
27566;SDS011;15006;48.584;9.186;2023-07-20T14:30:34;1.58;;;0.93;;
27566;SDS011;15006;48.584;9.186;2023-07-20T14:33:00;0.50;;;0.50;;
27566;SDS011;15006;48.584;9.186;2023-07-20T14:35:26;0.82;;;0.77;;
27566;SDS011;15006;48.584;9.186;2023-07-20T14:37:52;1.77;;;0.65;;
27566;SDS011;15006;48.584;9.186;2023-07-20T14:40:18;0.65;;;0.63;;
27566;SDS011;15006;48.584;9.186;2023-07-20T14:42:44;0.60;;;0.60;;
27566;SDS011;15006;48.584;9.186;2023-07-20T14:45:10;0.60;;;0.60;;
27566;SDS011;15006;48.584;9.186;2023-07-20T14:47:36;0.70;;;0.70;;
27566;SDS011;15006;48.584;9.186;2023-07-20T14:50:02;0.63;;;0.52;;
27566;SDS011;15006;48.584;9.186;2023-07-20T14:52:30;0.60;;;0.60;;
27566;SDS011;15006;48.584;9.186;2023-07-20T14:54:56;1.55;;;0.63;;
27566;SDS011;15006;48.584;9.186;2023-07-20T14:57:22;9.55;;;1.52;;
27566;SDS011;15006;48.584;9.186;2023-07-20T14:59:49;0.63;;;0.63;;
27566;SDS011;15006;48.584;9.186;2023-07-20T15:02:15;0.60;;;0.60;;
27566;SDS011;15006;48.584;9.186;2023-07-20T15:04:48;0.90;;;0.68;;
27566;SDS011;15006;48.584;9.186;2023-07-20T15:07:18;2.15;;;0.85;;
27566;SDS011;15006;48.584;9.186;2023-07-20T15:09:46;2.20;;;0.88;;
27566;SDS011;15006;48.584;9.186;2023-07-20T15:12:12;0.70;;;0.70;;
27566;SDS011;15006;48.584;9.186;2023-07-20T15:14:39;0.70;;;0.70;;